sensor_id;sensor_type;location;lat;lon;timestamp;P1;durP1;ratioP1;P2;durP2;ratioP2
10497;SDS011;5296;51.060;13.750;2023-06-10T00:03:50;8.35;;;7.45;;
10497;SDS011;5296;51.060;13.750;2023-06-10T00:08:53;8.57;;;7.80;;
10497;SDS011;5296;51.060;13.750;2023-06-10T00:13:56;9.40;;;8.50;;
10497;SDS011;5296;51.060;13.750;2023-06-10T00:18:58;8.20;;;7.40;;
10497;SDS011;5296;51.060;13.750;2023-06-10T00:24:06;7.57;;;6.88;;
10497;SDS011;5296;51.060;13.750;2023-06-10T00:29:08;7.85;;;7.25;;
10497;SDS011;5296;51.060;13.750;2023-06-10T00:34:10;8.00;;;7.30;;
10497;SDS011;5296;51.060;13.750;2023-06-10T00:39:11;8.15;;;7.35;;
10497;SDS011;5296;51.060;13.750;2023-06-10T00:44:13;7.72;;;7.10;;
10497;SDS011;5296;51.060;13.750;2023-06-10T00:49:16;7.13;;;6.43;;
10497;SDS011;5296;51.060;13.750;2023-06-10T00:54:18;7.35;;;6.65;;
10497;SDS011;5296;51.060;13.750;2023-06-10T00:59:19;6.97;;;6.35;;
10497;SDS011;5296;51.060;13.750;2023-06-10T01:04:21;7.68;;;6.93;;
10497;SDS011;5296;51.060;13.750;2023-06-10T01:09:37;7.43;;;6.82;;
10497;SDS011;5296;51.060;13.750;2023-06-10T01:14:42;7.85;;;7.25;;
10497;SDS011;5296;51.060;13.750;2023-06-10T01:19:52;7.95;;;7.25;;
10497;SDS011;5296;51.060;13.750;2023-06-10T01:24:56;7.07;;;6.38;;
10497;SDS011;5296;51.060;13.750;2023-06-10T01:30:01;8.98;;;6.40;;
10497;SDS011;5296;51.060;13.750;2023-06-10T01:35:06;6.30;;;5.80;;
10497;SDS011;5296;51.060;13.750;2023-06-10T01:40:11;6.65;;;6.05;;
10497;SDS011;5296;51.060;13.750;2023-06-10T01:45:14;6.78;;;6.10;;
10497;SDS011;5296;51.060;13.750;2023-06-10T01:50:15;7.10;;;6.50;;
10497;SDS011;5296;51.060;13.750;2023-06-10T01:55:17;7.32;;;6.00;;
10497;SDS011;5296;51.060;13.750;2023-06-10T02:00:19;6.50;;;6.00;;
10497;SDS011;5296;51.060;13.750;2023-06-10T02:05:21;8.43;;;5.80;;
10497;SDS011;5296;51.060;13.750;2023-06-10T02:10:23;6.95;;;6.35;;
10497;SDS011;5296;51.060;13.750;2023-06-10T02:15:24;7.28;;;6.68;;
10497;SDS011;5296;51.060;13.750;2023-06-10T02:20:27;6.50;;;6.00;;
10497;SDS011;5296;51.060;13.750;2023-06-10T02:25:28;7.90;;;6.95;;
10497;SDS011;5296;51.060;13.750;2023-06-10T02:30:31;7.75;;;6.75;;
10497;SDS011;5296;51.060;13.750;2023-06-10T02:35:33;6.60;;;6.00;;
10497;SDS011;5296;51.060;13.750;2023-06-10T02:40:34;7.75;;;6.93;;
10497;SDS011;5296;51.060;13.750;2023-06-10T02:45:36;7.22;;;6.63;;
10497;SDS011;5296;51.060;13.750;2023-06-10T02:50:38;7.60;;;6.88;;
10497;SDS011;5296;51.060;13.750;2023-06-10T02:55:53;7.82;;;7.07;;
10497;SDS011;5296;51.060;13.750;2023-06-10T03:00:55;7.53;;;6.82;;
10497;SDS011;5296;51.060;13.750;2023-06-10T03:05:58;8.65;;;7.60;;
10497;SDS011;5296;51.060;13.750;2023-06-10T03:11:01;9.63;;;7.28;;
10497;SDS011;5296;51.060;13.750;2023-06-10T03:16:04;8.20;;;7.50;;
10497;SDS011;5296;51.060;13.750;2023-06-10T03:21:09;8.45;;;7.65;;
10497;SDS011;5296;51.060;13.750;2023-06-10T03:26:12;8.57;;;7.88;;
10497;SDS011;5296;51.060;13.750;2023-06-10T03:31:19;8.65;;;7.82;;
10497;SDS011;5296;51.060;13.750;2023-06-10T03:36:21;8.63;;;7.82;;
10497;SDS011;5296;51.060;13.750;2023-06-10T03:41:23;8.98;;;8.18;;
10497;SDS011;5296;51.060;13.750;2023-06-10T03:46:25;8.93;;;8.13;;
10497;SDS011;5296;51.060;13.750;2023-06-10T03:51:27;8.10;;;7.50;;
10497;SDS011;5296;51.060;13.750;2023-06-10T03:56:30;7.85;;;7.25;;
10497;SDS011;5296;51.060;13.750;2023-06-10T04:01:32;8.65;;;7.85;;
10497;SDS011;5296;51.060;13.750;2023-06-10T04:06:34;8.88;;;8.15;;
10497;SDS011;5296;51.060;13.750;2023-06-10T04:11:36;9.63;;;8.73;;
10497;SDS011;5296;51.060;13.750;2023-06-10T04:16:38;10.90;;;9.80;;
10497;SDS011;5296;51.060;13.750;2023-06-10T04:21:40;10.48;;;9.63;;
10497;SDS011;5296;51.060;13.750;2023-06-10T04:26:43;10.32;;;9.43;;
10497;SDS011;5296;51.060;13.750;2023-06-10T04:31:45;14.07;;;8.85;;
10497;SDS011;5296;51.060;13.750;2023-06-10T04:36:48;9.10;;;8.30;;
10497;SDS011;5296;51.060;13.750;2023-06-10T04:41:50;8.82;;;8.02;;
10497;SDS011;5296;51.060;13.750;2023-06-10T04:46:52;8.60;;;7.80;;
10497;SDS011;5296;51.060;13.750;2023-06-10T04:51:54;9.07;;;8.18;;
10497;SDS011;5296;51.060;13.750;2023-06-10T04:56:56;7.47;;;6.78;;
10497;SDS011;5296;51.060;13.750;2023-06-10T05:01:58;7.47;;;6.97;;
10497;SDS011;5296;51.060;13.750;2023-06-10T05:07:00;7.95;;;7.25;;
10497;SDS011;5296;51.060;13.750;2023-06-10T05:12:02;7.30;;;6.80;;
10497;SDS011;5296;51.060;13.750;2023-06-10T05:17:04;7.43;;;6.72;;
10497;SDS011;5296;51.060;13.750;2023-06-10T05:22:07;6.80;;;6.05;;
10497;SDS011;5296;51.060;13.750;2023-06-10T05:27:09;7.18;;;6.47;;
10497;SDS011;5296;51.060;13.750;2023-06-10T05:32:11;6.20;;;5.60;;
10497;SDS011;5296;51.060;13.750;2023-06-10T05:37:13;6.38;;;5.85;;
10497;SDS011;5296;51.060;13.750;2023-06-10T05:42:15;7.10;;;6.32;;
10497;SDS011;5296;51.060;13.750;2023-06-10T05:47:17;6.28;;;5.68;;
10497;SDS011;5296;51.060;13.750;2023-06-10T05:52:19;6.30;;;5.80;;
10497;SDS011;5296;51.060;13.750;2023-06-10T05:57:21;6.78;;;5.97;;
10497;SDS011;5296;51.060;13.750;2023-06-10T06:02:23;5.78;;;5.28;;
10497;SDS011;5296;51.060;13.750;2023-06-10T06:07:25;8.10;;;4.88;;
10497;SDS011;5296;51.060;13.750;2023-06-10T06:12:27;5.88;;;4.43;;
10497;SDS011;5296;51.060;13.750;2023-06-10T06:17:28;5.50;;;5.00;;
10497;SDS011;5296;51.060;13.750;2023-06-10T06:22:30;5.03;;;4.63;;
10497;SDS011;5296;51.060;13.750;2023-06-10T06:27:32;5.65;;;5.03;;
10497;SDS011;5296;51.060;13.750;2023-06-10T06:32:33;5.50;;;4.75;;
10497;SDS011;5296;51.060;13.750;2023-06-10T06:37:35;4.97;;;4.47;;
10497;SDS011;5296;51.060;13.750;2023-06-10T06:42:54;5.15;;;4.75;;
10497;SDS011;5296;51.060;13.750;2023-06-10T06:48:05;4.97;;;4.57;;
10497;SDS011;5296;51.060;13.750;2023-06-10T06:53:07;8.23;;;5.50;;
10497;SDS011;5296;51.060;13.750;2023-06-10T06:58:08;5.05;;;4.65;;
10497;SDS011;5296;51.060;13.750;2023-06-10T07:03:10;5.78;;;5.18;;
10497;SDS011;5296;51.060;13.750;2023-06-10T07:08:12;5.35;;;4.95;;
10497;SDS011;5296;51.060;13.750;2023-06-10T07:13:15;5.90;;;5.40;;
10497;SDS011;5296;51.060;13.750;2023-06-10T07:18:17;6.03;;;5.53;;
10497;SDS011;5296;51.060;13.750;2023-06-10T07:23:19;5.80;;;5.30;;
10497;SDS011;5296;51.060;13.750;2023-06-10T07:28:20;5.55;;;5.15;;
10497;SDS011;5296;51.060;13.750;2023-06-10T07:33:22;6.38;;;5.88;;
10497;SDS011;5296;51.060;13.750;2023-06-10T07:38:24;5.95;;;5.32;;
10497;SDS011;5296;51.060;13.750;2023-06-10T07:43:26;6.20;;;5.65;;
10497;SDS011;5296;51.060;13.750;2023-06-10T07:48:28;6.00;;;5.53;;
10497;SDS011;5296;51.060;13.750;2023-06-10T07:53:30;6.30;;;5.80;;
10497;SDS011;5296;51.060;13.750;2023-06-10T07:58:32;6.65;;;5.40;;
10497;SDS011;5296;51.060;13.750;2023-06-10T08:03:33;6.18;;;5.60;;
10497;SDS011;5296;51.060;13.750;2023-06-10T08:08:35;6.90;;;6.22;;
10497;SDS011;5296;51.060;13.750;2023-06-10T08:13:42;7.05;;;5.68;;
10497;SDS011;5296;51.060;13.750;2023-06-10T08:18:44;6.03;;;5.43;;
10497;SDS011;5296;51.060;13.750;2023-06-10T08:23:45;6.35;;;5.55;;
10497;SDS011;5296;51.060;13.750;2023-06-10T08:28:47;6.40;;;5.80;;
10497;SDS011;5296;51.060;13.750;2023-06-10T08:33:49;6.53;;;5.93;;
10497;SDS011;5296;51.060;13.750;2023-06-10T08:38:51;6.22;;;5.63;;
10497;SDS011;5296;51.060;13.750;2023-06-10T08:44:04;6.32;;;5.75;;
10497;SDS011;5296;51.060;13.750;2023-06-10T08:49:10;5.68;;;5.25;;
10497;SDS011;5296;51.060;13.750;2023-06-10T08:54:15;7.03;;;5.90;;
10497;SDS011;5296;51.060;13.750;2023-06-10T08:59:22;7.95;;;5.57;;
10497;SDS011;5296;51.060;13.750;2023-06-10T09:04:25;6.68;;;5.72;;
10497;SDS011;5296;51.060;13.750;2023-06-10T09:09:27;6.57;;;6.07;;
10497;SDS011;5296;51.060;13.750;2023-06-10T09:14:30;6.30;;;5.80;;
10497;SDS011;5296;51.060;13.750;2023-06-10T09:19:32;6.15;;;5.65;;
10497;SDS011;5296;51.060;13.750;2023-06-10T09:24:34;6.30;;;5.50;;
10497;SDS011;5296;51.060;13.750;2023-06-10T09:29:52;6.05;;;5.45;;
10497;SDS011;5296;51.060;13.750;2023-06-10T09:34:55;7.07;;;5.10;;
10497;SDS011;5296;51.060;13.750;2023-06-10T09:40:06;5.60;;;5.10;;
10497;SDS011;5296;51.060;13.750;2023-06-10T09:45:10;6.53;;;5.20;;
10497;SDS011;5296;51.060;13.750;2023-06-10T09:50:12;5.78;;;5.20;;
10497;SDS011;5296;51.060;13.750;2023-06-10T09:55:15;5.57;;;5.10;;
10497;SDS011;5296;51.060;13.750;2023-06-10T10:00:18;6.63;;;5.45;;
10497;SDS011;5296;51.060;13.750;2023-06-10T10:05:21;5.18;;;4.75;;
10497;SDS011;5296;51.060;13.750;2023-06-10T10:10:25;7.30;;;5.25;;
10497;SDS011;5296;51.060;13.750;2023-06-10T10:15:28;5.30;;;4.80;;
10497;SDS011;5296;51.060;13.750;2023-06-10T10:20:32;5.07;;;4.68;;
10497;SDS011;5296;51.060;13.750;2023-06-10T10:25:37;4.88;;;4.43;;
10497;SDS011;5296;51.060;13.750;2023-06-10T10:30:40;5.53;;;4.93;;
10497;SDS011;5296;51.060;13.750;2023-06-10T10:35:45;5.88;;;5.30;;
10497;SDS011;5296;51.060;13.750;2023-06-10T10:40:47;7.10;;;4.90;;
10497;SDS011;5296;51.060;13.750;2023-06-10T10:46:01;5.93;;;4.88;;
10497;SDS011;5296;51.060;13.750;2023-06-10T10:51:05;7.57;;;5.82;;
10497;SDS011;5296;51.060;13.750;2023-06-10T10:56:13;5.50;;;5.00;;
10497;SDS011;5296;51.060;13.750;2023-06-10T11:01:16;5.40;;;4.88;;
10497;SDS011;5296;51.060;13.750;2023-06-10T11:06:18;8.13;;;4.80;;
10497;SDS011;5296;51.060;13.750;2023-06-10T11:11:21;6.55;;;5.18;;
10497;SDS011;5296;51.060;13.750;2023-06-10T11:16:27;5.40;;;5.00;;
10497;SDS011;5296;51.060;13.750;2023-06-10T11:21:30;8.38;;;5.43;;
10497;SDS011;5296;51.060;13.750;2023-06-10T11:26:32;5.35;;;4.85;;
10497;SDS011;5296;51.060;13.750;2023-06-10T11:36:41;5.90;;;5.30;;
10497;SDS011;5296;51.060;13.750;2023-06-10T11:41:46;6.10;;;5.05;;
10497;SDS011;5296;51.060;13.750;2023-06-10T11:46:48;5.60;;;5.10;;
10497;SDS011;5296;51.060;13.750;2023-06-10T11:51:51;7.05;;;5.38;;
10497;SDS011;5296;51.060;13.750;2023-06-10T11:56:57;5.82;;;5.22;;
10497;SDS011;5296;51.060;13.750;2023-06-10T12:01:59;5.93;;;5.32;;
10497;SDS011;5296;51.060;13.750;2023-06-10T12:07:01;5.80;;;5.22;;
10497;SDS011;5296;51.060;13.750;2023-06-10T12:12:03;5.45;;;4.85;;
10497;SDS011;5296;51.060;13.750;2023-06-10T12:17:07;5.88;;;5.38;;
10497;SDS011;5296;51.060;13.750;2023-06-10T12:22:08;7.78;;;5.35;;
10497;SDS011;5296;51.060;13.750;2023-06-10T12:27:13;5.18;;;4.78;;
10497;SDS011;5296;51.060;13.750;2023-06-10T12:32:15;7.70;;;4.55;;
10497;SDS011;5296;51.060;13.750;2023-06-10T12:37:17;5.10;;;4.60;;
10497;SDS011;5296;51.060;13.750;2023-06-10T12:42:21;4.78;;;4.40;;
10497;SDS011;5296;51.060;13.750;2023-06-10T12:47:33;5.25;;;4.75;;
10497;SDS011;5296;51.060;13.750;2023-06-10T12:52:36;7.20;;;5.03;;
10497;SDS011;5296;51.060;13.750;2023-06-10T12:57:47;6.13;;;5.05;;
10497;SDS011;5296;51.060;13.750;2023-06-10T13:02:50;6.03;;;5.03;;
10497;SDS011;5296;51.060;13.750;2023-06-10T13:07:52;8.25;;;5.00;;
10497;SDS011;5296;51.060;13.750;2023-06-10T13:12:53;5.30;;;4.80;;
10497;SDS011;5296;51.060;13.750;2023-06-10T13:17:58;7.07;;;4.22;;
10497;SDS011;5296;51.060;13.750;2023-06-10T13:23:00;4.45;;;4.05;;
10497;SDS011;5296;51.060;13.750;2023-06-10T13:28:01;7.05;;;4.93;;
10497;SDS011;5296;51.060;13.750;2023-06-10T13:33:04;6.93;;;5.03;;
10497;SDS011;5296;51.060;13.750;2023-06-10T13:38:05;5.07;;;4.68;;
10497;SDS011;5296;51.060;13.750;2023-06-10T13:43:08;5.07;;;4.65;;
10497;SDS011;5296;51.060;13.750;2023-06-10T13:48:11;6.25;;;4.78;;
10497;SDS011;5296;51.060;13.750;2023-06-10T13:53:12;6.22;;;4.20;;
10497;SDS011;5296;51.060;13.750;2023-06-10T13:58:14;4.10;;;3.80;;
10497;SDS011;5296;51.060;13.750;2023-06-10T14:03:16;4.68;;;4.15;;
10497;SDS011;5296;51.060;13.750;2023-06-10T14:08:18;4.55;;;3.88;;
10497;SDS011;5296;51.060;13.750;2023-06-10T14:13:19;5.85;;;3.63;;
10497;SDS011;5296;51.060;13.750;2023-06-10T14:18:21;4.20;;;3.90;;
10497;SDS011;5296;51.060;13.750;2023-06-10T14:23:23;4.05;;;3.72;;
10497;SDS011;5296;51.060;13.750;2023-06-10T14:28:26;5.47;;;3.63;;
10497;SDS011;5296;51.060;13.750;2023-06-10T14:33:29;3.95;;;3.65;;
10497;SDS011;5296;51.060;13.750;2023-06-10T14:38:32;4.35;;;3.95;;
10497;SDS011;5296;51.060;13.750;2023-06-10T14:43:34;4.10;;;3.75;;
10497;SDS011;5296;51.060;13.750;2023-06-10T14:48:36;4.40;;;4.00;;
10497;SDS011;5296;51.060;13.750;2023-06-10T14:53:37;4.82;;;4.40;;
10497;SDS011;5296;51.060;13.750;2023-06-10T14:58:39;5.32;;;4.32;;
10497;SDS011;5296;51.060;13.750;2023-06-10T15:03:41;5.00;;;4.30;;
10497;SDS011;5296;51.060;13.750;2023-06-10T15:08:42;4.90;;;4.47;;
10497;SDS011;5296;51.060;13.750;2023-06-10T15:13:44;5.05;;;4.55;;
10497;SDS011;5296;51.060;13.750;2023-06-10T15:18:46;5.03;;;4.53;;
10497;SDS011;5296;51.060;13.750;2023-06-10T15:23:47;5.38;;;4.97;;
10497;SDS011;5296;51.060;13.750;2023-06-10T15:28:49;6.45;;;4.72;;
10497;SDS011;5296;51.060;13.750;2023-06-10T15:33:51;5.38;;;4.95;;
10497;SDS011;5296;51.060;13.750;2023-06-10T15:38:53;5.43;;;4.93;;
10497;SDS011;5296;51.060;13.750;2023-06-10T15:43:58;6.18;;;5.55;;
10497;SDS011;5296;51.060;13.750;2023-06-10T15:49:01;6.25;;;4.82;;
10497;SDS011;5296;51.060;13.750;2023-06-10T15:54:02;5.60;;;5.10;;
10497;SDS011;5296;51.060;13.750;2023-06-10T15:59:04;5.70;;;5.00;;
10497;SDS011;5296;51.060;13.750;2023-06-10T16:04:06;5.82;;;5.22;;
10497;SDS011;5296;51.060;13.750;2023-06-10T16:09:08;12.68;;;4.78;;
10497;SDS011;5296;51.060;13.750;2023-06-10T16:14:09;6.57;;;4.93;;
10497;SDS011;5296;51.060;13.750;2023-06-10T16:19:11;5.47;;;5.07;;
10497;SDS011;5296;51.060;13.750;2023-06-10T16:24:13;5.53;;;4.45;;
10497;SDS011;5296;51.060;13.750;2023-06-10T16:29:16;5.35;;;4.78;;
10497;SDS011;5296;51.060;13.750;2023-06-10T16:34:19;6.45;;;5.00;;
10497;SDS011;5296;51.060;13.750;2023-06-10T16:39:20;5.55;;;5.05;;
10497;SDS011;5296;51.060;13.750;2023-06-10T16:44:22;8.35;;;4.90;;
10497;SDS011;5296;51.060;13.750;2023-06-10T16:49:24;5.97;;;4.80;;
10497;SDS011;5296;51.060;13.750;2023-06-10T16:54:25;5.45;;;4.97;;
10497;SDS011;5296;51.060;13.750;2023-06-10T16:59:27;6.57;;;4.95;;
10497;SDS011;5296;51.060;13.750;2023-06-10T17:04:29;7.00;;;4.90;;
10497;SDS011;5296;51.060;13.750;2023-06-10T17:09:30;5.13;;;4.60;;
10497;SDS011;5296;51.060;13.750;2023-06-10T17:14:32;6.75;;;4.50;;
10497;SDS011;5296;51.060;13.750;2023-06-10T17:19:34;4.82;;;4.43;;
10497;SDS011;5296;51.060;13.750;2023-06-10T17:24:35;5.63;;;4.80;;
10497;SDS011;5296;51.060;13.750;2023-06-10T17:29:38;6.38;;;4.85;;
10497;SDS011;5296;51.060;13.750;2023-06-10T17:34:40;5.57;;;4.97;;
10497;SDS011;5296;51.060;13.750;2023-06-10T17:39:42;6.18;;;5.15;;
10497;SDS011;5296;51.060;13.750;2023-06-10T17:44:43;7.95;;;7.10;;
10497;SDS011;5296;51.060;13.750;2023-06-10T17:49:45;9.27;;;8.35;;
10497;SDS011;5296;51.060;13.750;2023-06-10T17:54:47;8.13;;;6.13;;
10497;SDS011;5296;51.060;13.750;2023-06-10T17:59:49;8.18;;;5.50;;
10497;SDS011;5296;51.060;13.750;2023-06-10T18:04:51;5.28;;;4.43;;
10497;SDS011;5296;51.060;13.750;2023-06-10T18:09:53;6.03;;;5.28;;
10497;SDS011;5296;51.060;13.750;2023-06-10T18:14:54;5.65;;;5.15;;
10497;SDS011;5296;51.060;13.750;2023-06-10T18:19:56;8.52;;;6.05;;
10497;SDS011;5296;51.060;13.750;2023-06-10T18:24:58;7.53;;;6.20;;
10497;SDS011;5296;51.060;13.750;2023-06-10T18:30:00;7.20;;;6.38;;
10497;SDS011;5296;51.060;13.750;2023-06-10T18:35:02;8.70;;;6.07;;
10497;SDS011;5296;51.060;13.750;2023-06-10T18:40:06;7.30;;;6.60;;
10497;SDS011;5296;51.060;13.750;2023-06-10T18:45:11;7.47;;;6.75;;
10497;SDS011;5296;51.060;13.750;2023-06-10T18:50:13;8.45;;;6.72;;
10497;SDS011;5296;51.060;13.750;2023-06-10T18:55:15;7.15;;;6.00;;
10497;SDS011;5296;51.060;13.750;2023-06-10T19:00:17;6.97;;;6.10;;
10497;SDS011;5296;51.060;13.750;2023-06-10T19:05:18;8.55;;;5.88;;
10497;SDS011;5296;51.060;13.750;2023-06-10T19:10:20;6.25;;;5.65;;
10497;SDS011;5296;51.060;13.750;2023-06-10T19:15:23;7.05;;;5.95;;
10497;SDS011;5296;51.060;13.750;2023-06-10T19:20:25;7.97;;;5.97;;
10497;SDS011;5296;51.060;13.750;2023-06-10T19:25:26;6.60;;;6.07;;
10497;SDS011;5296;51.060;13.750;2023-06-10T19:30:28;7.10;;;6.00;;
10497;SDS011;5296;51.060;13.750;2023-06-10T19:35:32;6.93;;;6.32;;
10497;SDS011;5296;51.060;13.750;2023-06-10T19:40:38;6.75;;;5.88;;
10497;SDS011;5296;51.060;13.750;2023-06-10T19:45:39;6.40;;;5.80;;
10497;SDS011;5296;51.060;13.750;2023-06-10T19:50:41;6.63;;;6.10;;
10497;SDS011;5296;51.060;13.750;2023-06-10T19:55:43;7.53;;;6.50;;
10497;SDS011;5296;51.060;13.750;2023-06-10T20:00:44;6.93;;;6.22;;
10497;SDS011;5296;51.060;13.750;2023-06-10T20:05:46;6.80;;;6.20;;
10497;SDS011;5296;51.060;13.750;2023-06-10T20:10:48;6.57;;;5.97;;
10497;SDS011;5296;51.060;13.750;2023-06-10T20:15:49;6.80;;;6.10;;
10497;SDS011;5296;51.060;13.750;2023-06-10T20:20:51;7.35;;;6.53;;
10497;SDS011;5296;51.060;13.750;2023-06-10T20:25:53;7.55;;;6.68;;
10497;SDS011;5296;51.060;13.750;2023-06-10T20:30:54;7.80;;;6.15;;
10497;SDS011;5296;51.060;13.750;2023-06-10T20:35:56;6.38;;;5.70;;
10497;SDS011;5296;51.060;13.750;2023-06-10T20:40:58;8.80;;;6.10;;
10497;SDS011;5296;51.060;13.750;2023-06-10T20:46:00;8.23;;;5.85;;
10497;SDS011;5296;51.060;13.750;2023-06-10T20:51:02;7.95;;;6.10;;
10497;SDS011;5296;51.060;13.750;2023-06-10T20:56:03;8.93;;;6.28;;
10497;SDS011;5296;51.060;13.750;2023-06-10T21:01:05;9.35;;;6.25;;
10497;SDS011;5296;51.060;13.750;2023-06-10T21:06:09;8.38;;;6.30;;
10497;SDS011;5296;51.060;13.750;2023-06-10T21:11:12;6.82;;;5.93;;
10497;SDS011;5296;51.060;13.750;2023-06-10T21:16:13;6.68;;;6.13;;
10497;SDS011;5296;51.060;13.750;2023-06-10T21:21:15;6.75;;;6.15;;
10497;SDS011;5296;51.060;13.750;2023-06-10T21:26:17;10.68;;;7.00;;
10497;SDS011;5296;51.060;13.750;2023-06-10T21:31:19;7.95;;;7.13;;
10497;SDS011;5296;51.060;13.750;2023-06-10T21:36:21;8.52;;;7.68;;
10497;SDS011;5296;51.060;13.750;2023-06-10T21:41:22;7.90;;;7.10;;
10497;SDS011;5296;51.060;13.750;2023-06-10T21:46:24;13.85;;;7.57;;
10497;SDS011;5296;51.060;13.750;2023-06-10T21:51:27;7.32;;;6.60;;
10497;SDS011;5296;51.060;13.750;2023-06-10T21:56:29;9.20;;;7.53;;
10497;SDS011;5296;51.060;13.750;2023-06-10T22:01:33;10.43;;;7.78;;
10497;SDS011;5296;51.060;13.750;2023-06-10T22:06:37;9.52;;;7.78;;
10497;SDS011;5296;51.060;13.750;2023-06-10T22:11:38;9.07;;;8.05;;
10497;SDS011;5296;51.060;13.750;2023-06-10T22:16:40;9.35;;;7.93;;
10497;SDS011;5296;51.060;13.750;2023-06-10T22:21:42;9.98;;;8.57;;
10497;SDS011;5296;51.060;13.750;2023-06-10T22:26:44;8.80;;;7.97;;
10497;SDS011;5296;51.060;13.750;2023-06-10T22:31:54;9.45;;;8.50;;
10497;SDS011;5296;51.060;13.750;2023-06-10T22:36:57;9.38;;;7.88;;
10497;SDS011;5296;51.060;13.750;2023-06-10T22:41:58;9.15;;;8.23;;
10497;SDS011;5296;51.060;13.750;2023-06-10T22:47:01;8.77;;;7.88;;
10497;SDS011;5296;51.060;13.750;2023-06-10T22:52:03;10.07;;;7.80;;
10497;SDS011;5296;51.060;13.750;2023-06-10T22:57:05;9.07;;;7.60;;
10497;SDS011;5296;51.060;13.750;2023-06-10T23:02:07;7.95;;;7.15;;
10497;SDS011;5296;51.060;13.750;2023-06-10T23:07:09;6.78;;;6.18;;
10497;SDS011;5296;51.060;13.750;2023-06-10T23:12:15;6.50;;;5.90;;
10497;SDS011;5296;51.060;13.750;2023-06-10T23:17:17;10.43;;;6.88;;
10497;SDS011;5296;51.060;13.750;2023-06-10T23:22:22;8.30;;;5.95;;
10497;SDS011;5296;51.060;13.750;2023-06-10T23:27:26;7.38;;;6.38;;
10497;SDS011;5296;51.060;13.750;2023-06-10T23:32:29;12.32;;;6.68;;
10497;SDS011;5296;51.060;13.750;2023-06-10T23:37:32;9.00;;;6.38;;
10497;SDS011;5296;51.060;13.750;2023-06-10T23:42:34;8.45;;;6.38;;
10497;SDS011;5296;51.060;13.750;2023-06-10T23:47:36;7.78;;;5.60;;
10497;SDS011;5296;51.060;13.750;2023-06-10T23:52:39;6.47;;;5.60;;
10497;SDS011;5296;51.060;13.750;2023-06-10T23:57:40;7.10;;;6.40;;
